sensor_id;sensor_type;location;lat;lon;timestamp;P1;durP1;ratioP1;P2;durP2;ratioP2
51048;SDS011;37084;55.228;36.450;2023-07-30T08:04:28;3.60;;;1.38;;
51048;SDS011;37084;55.228;36.450;2023-07-30T08:07:30;1.42;;;1.33;;
51048;SDS011;37084;55.228;36.450;2023-07-30T08:10:33;2.45;;;1.33;;
51048;SDS011;37084;55.228;36.450;2023-07-30T08:13:46;2.03;;;1.30;;
51048;SDS011;37084;55.228;36.450;2023-07-30T08:16:52;3.10;;;1.38;;
51048;SDS011;37084;55.228;36.450;2023-07-30T08:20:01;1.33;;;1.20;;
51048;SDS011;37084;55.228;36.450;2023-07-30T08:27:07;1.77;;;1.33;;
51048;SDS011;37084;55.228;36.450;2023-07-30T08:37:42;2.03;;;1.52;;
51048;SDS011;37084;55.228;36.450;2023-07-30T08:41:33;1.90;;;1.38;;
51048;SDS011;37084;55.228;36.450;2023-07-30T08:44:39;1.85;;;1.55;;
51048;SDS011;37084;55.228;36.450;2023-07-30T08:48:08;2.15;;;1.30;;
51048;SDS011;37084;55.228;36.450;2023-07-30T08:51:16;3.30;;;1.52;;
51048;SDS011;37084;55.228;36.450;2023-07-30T08:55:04;3.78;;;2.00;;
51048;SDS011;37084;55.228;36.450;2023-07-30T08:58:47;2.83;;;2.28;;
51048;SDS011;37084;55.228;36.450;2023-07-30T09:01:51;3.38;;;1.83;;
51048;SDS011;37084;55.228;36.450;2023-07-30T09:04:56;2.63;;;1.67;;
51048;SDS011;37084;55.228;36.450;2023-07-30T09:08:10;4.00;;;1.90;;
51048;SDS011;37084;55.228;36.450;2023-07-30T09:11:11;3.53;;;1.70;;
51048;SDS011;37084;55.228;36.450;2023-07-30T09:14:14;1.90;;;1.55;;
51048;SDS011;37084;55.228;36.450;2023-07-30T09:17:20;2.13;;;1.33;;
51048;SDS011;37084;55.228;36.450;2023-07-30T09:20:22;1.98;;;1.58;;
51048;SDS011;37084;55.228;36.450;2023-07-30T09:23:23;2.30;;;1.25;;
51048;SDS011;37084;55.228;36.450;2023-07-30T09:26:25;1.73;;;1.00;;
51048;SDS011;37084;55.228;36.450;2023-07-30T09:29:27;2.08;;;1.60;;
51048;SDS011;37084;55.228;36.450;2023-07-30T09:32:30;2.47;;;1.20;;
51048;SDS011;37084;55.228;36.450;2023-07-30T09:35:33;1.58;;;1.13;;
51048;SDS011;37084;55.228;36.450;2023-07-30T09:50:42;2.63;;;1.40;;
51048;SDS011;37084;55.228;36.450;2023-07-30T09:53:45;1.92;;;1.35;;
51048;SDS011;37084;55.228;36.450;2023-07-30T09:56:47;1.55;;;1.45;;
51048;SDS011;37084;55.228;36.450;2023-07-30T09:59:48;3.10;;;1.23;;
51048;SDS011;37084;55.228;36.450;2023-07-30T10:08:36;3.38;;;1.30;;
51048;SDS011;37084;55.228;36.450;2023-07-30T10:11:39;1.50;;;0.93;;
51048;SDS011;37084;55.228;36.450;2023-07-30T10:18:38;1.48;;;1.23;;
51048;SDS011;37084;55.228;36.450;2023-07-30T10:21:41;1.55;;;1.10;;
51048;SDS011;37084;55.228;36.450;2023-07-30T10:24:55;2.05;;;1.50;;
51048;SDS011;37084;55.228;36.450;2023-07-30T10:28:08;2.30;;;1.17;;
51048;SDS011;37084;55.228;36.450;2023-07-30T10:31:09;2.15;;;1.33;;
51048;SDS011;37084;55.228;36.450;2023-07-30T10:34:15;2.13;;;1.20;;
51048;SDS011;37084;55.228;36.450;2023-07-30T10:37:18;1.98;;;1.05;;
51048;SDS011;37084;55.228;36.450;2023-07-30T10:40:23;2.85;;;1.40;;
51048;SDS011;37084;55.228;36.450;2023-07-30T10:43:30;1.52;;;1.00;;
51048;SDS011;37084;55.228;36.450;2023-07-30T10:46:36;3.03;;;1.20;;
51048;SDS011;37084;55.228;36.450;2023-07-30T10:49:40;1.92;;;1.10;;
51048;SDS011;37084;55.228;36.450;2023-07-30T10:52:44;1.85;;;1.02;;
51048;SDS011;37084;55.228;36.450;2023-07-30T10:55:47;1.48;;;0.98;;
51048;SDS011;37084;55.228;36.450;2023-07-30T10:58:52;2.42;;;1.10;;
51048;SDS011;37084;55.228;36.450;2023-07-30T11:01:55;1.88;;;1.00;;
51048;SDS011;37084;55.228;36.450;2023-07-30T11:05:10;1.83;;;1.27;;
51048;SDS011;37084;55.228;36.450;2023-07-30T11:08:15;1.60;;;1.23;;
51048;SDS011;37084;55.228;36.450;2023-07-30T11:11:16;3.42;;;2.88;;
51048;SDS011;37084;55.228;36.450;2023-07-30T11:14:22;2.00;;;1.58;;
51048;SDS011;37084;55.228;36.450;2023-07-30T11:17:26;1.77;;;1.10;;
51048;SDS011;37084;55.228;36.450;2023-07-30T11:20:28;1.52;;;1.20;;
51048;SDS011;37084;55.228;36.450;2023-07-30T11:23:29;1.67;;;1.42;;
51048;SDS011;37084;55.228;36.450;2023-07-30T11:26:31;2.45;;;1.15;;
51048;SDS011;37084;55.228;36.450;2023-07-30T11:29:32;2.45;;;0.95;;
51048;SDS011;37084;55.228;36.450;2023-07-30T11:32:33;1.63;;;1.00;;
51048;SDS011;37084;55.228;36.450;2023-07-30T11:35:37;1.08;;;0.98;;
51048;SDS011;37084;55.228;36.450;2023-07-30T11:38:39;1.55;;;1.10;;
51048;SDS011;37084;55.228;36.450;2023-07-30T11:41:43;2.58;;;1.10;;
51048;SDS011;37084;55.228;36.450;2023-07-30T11:44:47;2.13;;;1.30;;
51048;SDS011;37084;55.228;36.450;2023-07-30T11:47:49;1.50;;;1.30;;
51048;SDS011;37084;55.228;36.450;2023-07-30T11:50:51;1.20;;;1.10;;
51048;SDS011;37084;55.228;36.450;2023-07-30T11:53:55;3.28;;;1.08;;
51048;SDS011;37084;55.228;36.450;2023-07-30T11:57:03;1.20;;;0.77;;
51048;SDS011;37084;55.228;36.450;2023-07-30T12:00:06;1.08;;;0.98;;
51048;SDS011;37084;55.228;36.450;2023-07-30T12:03:14;1.30;;;0.90;;
51048;SDS011;37084;55.228;36.450;2023-07-30T12:06:17;2.28;;;0.85;;
51048;SDS011;37084;55.228;36.450;2023-07-30T12:09:19;1.77;;;0.93;;
51048;SDS011;37084;55.228;36.450;2023-07-30T12:12:27;4.72;;;1.63;;
51048;SDS011;37084;55.228;36.450;2023-07-30T12:15:28;2.08;;;1.80;;
51048;SDS011;37084;55.228;36.450;2023-07-30T12:18:34;1.30;;;1.20;;
51048;SDS011;37084;55.228;36.450;2023-07-30T12:21:43;2.33;;;1.35;;
51048;SDS011;37084;55.228;36.450;2023-07-30T12:24:44;2.92;;;2.25;;
51048;SDS011;37084;55.228;36.450;2023-07-30T12:27:47;2.33;;;1.60;;
51048;SDS011;37084;55.228;36.450;2023-07-30T12:30:58;1.55;;;1.17;;
51048;SDS011;37084;55.228;36.450;2023-07-30T12:34:05;1.27;;;1.13;;
51048;SDS011;37084;55.228;36.450;2023-07-30T12:37:07;1.20;;;0.90;;
51048;SDS011;37084;55.228;36.450;2023-07-30T12:40:11;2.38;;;0.75;;
51048;SDS011;37084;55.228;36.450;2023-07-30T12:43:13;2.03;;;1.02;;
51048;SDS011;37084;55.228;36.450;2023-07-30T12:46:14;1.38;;;0.93;;
51048;SDS011;37084;55.228;36.450;2023-07-30T12:49:16;2.60;;;2.40;;
51048;SDS011;37084;55.228;36.450;2023-07-30T12:52:19;1.65;;;1.55;;
51048;SDS011;37084;55.228;36.450;2023-07-30T12:55:20;1.20;;;1.08;;
51048;SDS011;37084;55.228;36.450;2023-07-30T12:58:23;1.98;;;1.13;;
51048;SDS011;37084;55.228;36.450;2023-07-30T13:01:25;1.10;;;0.93;;
51048;SDS011;37084;55.228;36.450;2023-07-30T13:04:38;1.30;;;1.02;;
51048;SDS011;37084;55.228;36.450;2023-07-30T13:31:30;22.75;;;20.98;;
51048;SDS011;37084;55.228;36.450;2023-07-30T13:38:13;1.70;;;1.40;;
51048;SDS011;37084;55.228;36.450;2023-07-30T13:41:40;2.35;;;1.75;;
51048;SDS011;37084;55.228;36.450;2023-07-30T14:23:23;1.48;;;1.13;;
51048;SDS011;37084;55.228;36.450;2023-07-30T14:26:38;1.88;;;1.10;;
51048;SDS011;37084;55.228;36.450;2023-07-30T14:30:05;2.13;;;1.10;;
51048;SDS011;37084;55.228;36.450;2023-07-30T14:33:26;2.35;;;1.10;;
51048;SDS011;37084;55.228;36.450;2023-07-30T14:40:22;1.35;;;1.00;;
51048;SDS011;37084;55.228;36.450;2023-07-30T14:43:23;1.50;;;0.80;;
51048;SDS011;37084;55.228;36.450;2023-07-30T14:47:11;1.02;;;0.90;;
51048;SDS011;37084;55.228;36.450;2023-07-30T14:50:26;1.73;;;0.80;;
51048;SDS011;37084;55.228;36.450;2023-07-30T14:57:24;1.00;;;0.82;;
51048;SDS011;37084;55.228;36.450;2023-07-30T15:00:39;1.10;;;0.93;;
51048;SDS011;37084;55.228;36.450;2023-07-30T15:03:47;2.15;;;1.38;;
51048;SDS011;37084;55.228;36.450;2023-07-30T15:07:02;5.20;;;1.42;;
51048;SDS011;37084;55.228;36.450;2023-07-30T15:10:25;1.15;;;1.00;;
51048;SDS011;37084;55.228;36.450;2023-07-30T15:13:37;1.70;;;0.98;;
51048;SDS011;37084;55.228;36.450;2023-07-30T15:16:39;2.35;;;1.50;;
51048;SDS011;37084;55.228;36.450;2023-07-30T15:19:48;1.35;;;0.82;;
51048;SDS011;37084;55.228;36.450;2023-07-30T15:22:51;3.30;;;0.80;;
51048;SDS011;37084;55.228;36.450;2023-07-30T15:25:56;1.30;;;0.90;;
51048;SDS011;37084;55.228;36.450;2023-07-30T15:29:07;2.13;;;0.82;;
51048;SDS011;37084;55.228;36.450;2023-07-30T15:32:10;2.38;;;0.90;;
51048;SDS011;37084;55.228;36.450;2023-07-30T15:35:12;1.50;;;0.80;;
51048;SDS011;37084;55.228;36.450;2023-07-30T15:38:17;1.77;;;1.40;;
51048;SDS011;37084;55.228;36.450;2023-07-30T15:41:20;1.63;;;1.13;;
51048;SDS011;37084;55.228;36.450;2023-07-30T15:44:22;2.50;;;1.20;;
51048;SDS011;37084;55.228;36.450;2023-07-30T15:47:23;1.77;;;1.40;;
51048;SDS011;37084;55.228;36.450;2023-07-30T15:50:25;2.20;;;1.35;;
51048;SDS011;37084;55.228;36.450;2023-07-30T15:53:28;1.33;;;1.17;;
51048;SDS011;37084;55.228;36.450;2023-07-30T15:56:29;0.98;;;0.88;;
51048;SDS011;37084;55.228;36.450;2023-07-30T15:59:31;1.60;;;1.00;;
51048;SDS011;37084;55.228;36.450;2023-07-30T16:02:34;2.40;;;1.10;;
51048;SDS011;37084;55.228;36.450;2023-07-30T16:05:35;1.63;;;1.00;;
51048;SDS011;37084;55.228;36.450;2023-07-30T16:08:38;1.23;;;0.82;;
51048;SDS011;37084;55.228;36.450;2023-07-30T16:11:44;1.13;;;0.70;;
51048;SDS011;37084;55.228;36.450;2023-07-30T16:14:45;2.40;;;1.15;;
51048;SDS011;37084;55.228;36.450;2023-07-30T16:17:47;4.30;;;1.40;;
51048;SDS011;37084;55.228;36.450;2023-07-30T16:20:48;1.48;;;1.00;;
51048;SDS011;37084;55.228;36.450;2023-07-30T16:23:50;1.92;;;1.10;;
51048;SDS011;37084;55.228;36.450;2023-07-30T16:26:51;3.65;;;1.25;;
51048;SDS011;37084;55.228;36.450;2023-07-30T16:29:53;1.60;;;1.20;;
51048;SDS011;37084;55.228;36.450;2023-07-30T16:32:54;4.57;;;1.15;;
51048;SDS011;37084;55.228;36.450;2023-07-30T16:35:57;2.45;;;1.58;;
51048;SDS011;37084;55.228;36.450;2023-07-30T16:38:58;2.17;;;1.30;;
51048;SDS011;37084;55.228;36.450;2023-07-30T16:41:59;2.95;;;1.48;;
51048;SDS011;37084;55.228;36.450;2023-07-30T16:45:02;2.63;;;1.15;;
51048;SDS011;37084;55.228;36.450;2023-07-30T16:48:07;3.45;;;1.50;;
51048;SDS011;37084;55.228;36.450;2023-07-30T16:51:08;4.00;;;1.42;;
51048;SDS011;37084;55.228;36.450;2023-07-30T16:54:11;4.38;;;1.60;;
51048;SDS011;37084;55.228;36.450;2023-07-30T16:57:14;3.13;;;1.60;;
51048;SDS011;37084;55.228;36.450;2023-07-30T17:00:16;8.10;;;1.67;;
51048;SDS011;37084;55.228;36.450;2023-07-30T17:03:17;5.65;;;1.40;;
51048;SDS011;37084;55.228;36.450;2023-07-30T17:06:22;1.80;;;0.90;;
51048;SDS011;37084;55.228;36.450;2023-07-30T17:09:26;1.20;;;0.80;;
51048;SDS011;37084;55.228;36.450;2023-07-30T18:32:22;4.03;;;2.33;;
51048;SDS011;37084;55.228;36.450;2023-07-30T18:36:04;6.32;;;2.22;;
51048;SDS011;37084;55.228;36.450;2023-07-30T18:39:43;5.43;;;2.13;;
51048;SDS011;37084;55.228;36.450;2023-07-30T18:43:05;5.53;;;2.78;;
51048;SDS011;37084;55.228;36.450;2023-07-30T18:46:12;9.73;;;2.85;;
51048;SDS011;37084;55.228;36.450;2023-07-30T18:49:23;8.50;;;2.88;;
51048;SDS011;37084;55.228;36.450;2023-07-30T18:52:51;8.13;;;2.55;;
51048;SDS011;37084;55.228;36.450;2023-07-30T18:55:57;5.05;;;2.38;;
51048;SDS011;37084;55.228;36.450;2023-07-30T18:58:59;5.82;;;2.10;;
51048;SDS011;37084;55.228;36.450;2023-07-30T19:02:25;7.53;;;2.20;;
51048;SDS011;37084;55.228;36.450;2023-07-30T19:05:55;9.88;;;2.65;;
51048;SDS011;37084;55.228;36.450;2023-07-30T19:12:18;7.95;;;2.90;;
51048;SDS011;37084;55.228;36.450;2023-07-30T19:32:51;5.82;;;3.15;;
51048;SDS011;37084;55.228;36.450;2023-07-30T19:35:59;7.15;;;3.60;;
51048;SDS011;37084;55.228;36.450;2023-07-30T19:46:06;6.63;;;3.53;;
51048;SDS011;37084;55.228;36.450;2023-07-30T19:49:14;7.20;;;4.00;;
51048;SDS011;37084;55.228;36.450;2023-07-30T19:52:39;8.90;;;4.57;;
51048;SDS011;37084;55.228;36.450;2023-07-30T20:30:09;16.38;;;8.77;;
51048;SDS011;37084;55.228;36.450;2023-07-30T20:34:50;19.52;;;10.18;;
51048;SDS011;37084;55.228;36.450;2023-07-30T20:40:59;12.50;;;6.10;;
51048;SDS011;37084;55.228;36.450;2023-07-30T20:44:44;13.10;;;5.05;;
51048;SDS011;37084;55.228;36.450;2023-07-30T20:47:49;9.60;;;5.05;;
51048;SDS011;37084;55.228;36.450;2023-07-30T20:50:55;10.13;;;4.80;;
51048;SDS011;37084;55.228;36.450;2023-07-30T20:54:00;10.10;;;5.10;;
51048;SDS011;37084;55.228;36.450;2023-07-30T20:57:02;9.55;;;5.70;;
51048;SDS011;37084;55.228;36.450;2023-07-30T21:00:08;23.58;;;11.80;;
51048;SDS011;37084;55.228;36.450;2023-07-30T21:03:11;17.25;;;8.57;;
51048;SDS011;37084;55.228;36.450;2023-07-30T21:06:13;12.48;;;6.07;;
51048;SDS011;37084;55.228;36.450;2023-07-30T21:09:16;11.95;;;5.90;;
51048;SDS011;37084;55.228;36.450;2023-07-30T21:12:19;10.98;;;5.38;;
51048;SDS011;37084;55.228;36.450;2023-07-30T21:15:21;11.45;;;4.03;;
51048;SDS011;37084;55.228;36.450;2023-07-30T21:18:24;6.68;;;3.45;;
51048;SDS011;37084;55.228;36.450;2023-07-30T21:21:25;9.95;;;3.75;;
51048;SDS011;37084;55.228;36.450;2023-07-30T21:24:30;9.05;;;3.20;;
51048;SDS011;37084;55.228;36.450;2023-07-30T21:27:34;6.43;;;3.10;;
51048;SDS011;37084;55.228;36.450;2023-07-30T21:30:36;8.48;;;3.25;;
51048;SDS011;37084;55.228;36.450;2023-07-30T21:33:37;7.45;;;3.28;;
51048;SDS011;37084;55.228;36.450;2023-07-30T21:36:38;6.82;;;3.00;;
51048;SDS011;37084;55.228;36.450;2023-07-30T21:39:41;5.45;;;2.63;;
51048;SDS011;37084;55.228;36.450;2023-07-30T21:42:42;5.85;;;2.97;;
51048;SDS011;37084;55.228;36.450;2023-07-30T21:45:53;5.07;;;2.72;;
51048;SDS011;37084;55.228;36.450;2023-07-30T21:48:58;5.78;;;2.85;;
51048;SDS011;37084;55.228;36.450;2023-07-30T21:51:59;5.60;;;2.55;;
51048;SDS011;37084;55.228;36.450;2023-07-30T21:55:01;4.88;;;2.90;;
51048;SDS011;37084;55.228;36.450;2023-07-30T21:58:05;5.43;;;2.83;;
51048;SDS011;37084;55.228;36.450;2023-07-30T22:01:06;6.22;;;2.50;;
51048;SDS011;37084;55.228;36.450;2023-07-30T22:04:08;6.13;;;2.75;;
51048;SDS011;37084;55.228;36.450;2023-07-30T22:07:09;9.40;;;2.95;;
51048;SDS011;37084;55.228;36.450;2023-07-30T22:10:12;5.72;;;2.47;;
51048;SDS011;37084;55.228;36.450;2023-07-30T22:13:15;7.07;;;2.63;;
51048;SDS011;37084;55.228;36.450;2023-07-30T22:16:18;4.00;;;2.75;;
51048;SDS011;37084;55.228;36.450;2023-07-30T22:19:20;5.57;;;2.55;;
51048;SDS011;37084;55.228;36.450;2023-07-30T22:22:21;7.32;;;3.17;;
51048;SDS011;37084;55.228;36.450;2023-07-30T22:25:23;6.28;;;3.13;;
51048;SDS011;37084;55.228;36.450;2023-07-30T22:28:26;6.00;;;2.35;;
51048;SDS011;37084;55.228;36.450;2023-07-30T22:31:27;7.22;;;2.60;;
51048;SDS011;37084;55.228;36.450;2023-07-30T22:34:29;4.03;;;2.35;;
51048;SDS011;37084;55.228;36.450;2023-07-30T22:37:30;5.85;;;2.67;;
51048;SDS011;37084;55.228;36.450;2023-07-30T22:40:33;3.28;;;2.13;;
51048;SDS011;37084;55.228;36.450;2023-07-30T22:43:34;8.07;;;3.28;;
51048;SDS011;37084;55.228;36.450;2023-07-30T22:46:35;5.20;;;2.60;;
51048;SDS011;37084;55.228;36.450;2023-07-30T22:49:37;6.32;;;2.38;;
51048;SDS011;37084;55.228;36.450;2023-07-30T22:52:38;5.38;;;2.30;;
51048;SDS011;37084;55.228;36.450;2023-07-30T22:55:39;5.82;;;2.80;;
51048;SDS011;37084;55.228;36.450;2023-07-30T22:58:43;7.47;;;2.65;;
51048;SDS011;37084;55.228;36.450;2023-07-30T23:01:44;4.25;;;2.58;;
51048;SDS011;37084;55.228;36.450;2023-07-30T23:04:46;5.72;;;2.63;;
51048;SDS011;37084;55.228;36.450;2023-07-30T23:07:47;5.63;;;2.35;;
51048;SDS011;37084;55.228;36.450;2023-07-30T23:10:48;3.60;;;2.70;;
51048;SDS011;37084;55.228;36.450;2023-07-30T23:13:50;6.70;;;2.78;;
51048;SDS011;37084;55.228;36.450;2023-07-30T23:16:51;5.03;;;2.60;;
51048;SDS011;37084;55.228;36.450;2023-07-30T23:19:52;4.38;;;2.40;;
51048;SDS011;37084;55.228;36.450;2023-07-30T23:22:54;4.10;;;2.42;;
51048;SDS011;37084;55.228;36.450;2023-07-30T23:25:55;5.05;;;2.67;;
51048;SDS011;37084;55.228;36.450;2023-07-30T23:28:56;4.55;;;2.58;;
51048;SDS011;37084;55.228;36.450;2023-07-30T23:31:58;4.75;;;2.70;;
51048;SDS011;37084;55.228;36.450;2023-07-30T23:34:59;4.47;;;2.50;;
51048;SDS011;37084;55.228;36.450;2023-07-30T23:38:01;4.28;;;2.70;;
51048;SDS011;37084;55.228;36.450;2023-07-30T23:41:02;5.28;;;3.00;;
51048;SDS011;37084;55.228;36.450;2023-07-30T23:44:03;5.93;;;2.75;;
51048;SDS011;37084;55.228;36.450;2023-07-30T23:47:05;6.35;;;3.15;;
51048;SDS011;37084;55.228;36.450;2023-07-30T23:50:06;4.60;;;2.38;;
51048;SDS011;37084;55.228;36.450;2023-07-30T23:53:08;3.83;;;2.35;;
51048;SDS011;37084;55.228;36.450;2023-07-30T23:56:09;4.25;;;2.38;;
51048;SDS011;37084;55.228;36.450;2023-07-30T23:59:11;4.05;;;2.13;;
